x

Pt Arena - 19nm North Of Point Arena, Ca (46014) Wave Buoy

2:50am - Sat 25th Apr 2015 All times are PDT. -7 hours from GMT.

  • Sig Wave height 8.9ft
  • Peak Period 12s
  • Average Period 9s
  • Wind
    13mph, 18mph gusts
  • Sea Temp 49°f
  • Sea Pressure 1012.6mb
  • Pt Arena - 19nm North Of Point Arena, Ca
  • Pt Arena - 19nm North Of Point Arena, Ca

More Historic Weather Station data

Upgrade to MSW Pro to gain access to the past 30 days of data for over 8000 Wavebouys and Weather Stations around the globe.

Join Pro

Comparision Forecast

View Surf forecast
   
Sat 04/25 2:50am 9ft 12s 9s 13 18 mph 1012.6mb 49f
1:50am 9ft 15s 9s 9 13 mph 1012.4mb 49f
12:50am 9ft 15s 10s 2 4 mph 1012.3mb 49f
Fri 04/24 11:50pm 9ft 14s 10s 2 7 mph 1012.4mb 49f
10:50pm 9ft 15s 10s 11 16 mph 1012.7mb 49f
9:50pm 10ft 15s 11s 11 16 mph 1013.3mb 49f
8:50pm 9ft 15s 11s 13 18 mph 1013.6mb 49f
7:50pm 9ft 15s 10s 7 9 mph 1014.4mb 49f
6:50pm 8.5ft 15s 10s 9 11 mph 1015.1mb 50f
5:50pm 8ft 16s 9s 4 7 mph 1015.8mb 50f
4:50pm 7ft 16s 9s 4 7 mph 1016.2mb 50f
3:50pm 6ft 11s 8s 7
mph
1016.6mb 51f
2:50pm 6ft 17s 8s 2 4 mph 1016.8mb 51f
1:50pm 6ft 11s 8s 4 7 mph 1017.1mb 51f
12:50pm 6ft 10s 8s 4 7 mph 1017.6mb 50f
11:50am 6ft 11s 8s 4 7 mph 1017.7mb 49f
10:50am 6ft 11s 7s 9
mph
1017.5mb 49f
9:50am 6ft 10s 7s 11 13 mph 1016.8mb 49f
8:50am 5.5ft 11s 7s 11 13 mph 1016.5mb 49f
7:50am 5ft 10s 6s 13 18 mph 1015.9mb 49f
6:50am 5ft 11s 5s 13 16 mph 1015.6mb 49f
5:50am 5ft 11s 6s 16 20 mph 1014.9mb 49f
4:50am 5ft 11s 6s 16 18 mph 1014.7mb 49f
3:50am 5ft 9s 6s 13 18 mph 1014.5mb 49f
2:50am 5ft 11s 6s 16 20 mph 1014.5mb 49f
1:50am 5.5ft 10s 6s 9 11 mph 1014.6mb 49f
12:50am 5ft 11s 6s 16 20 mph 1014.5mb 49f
Thu 04/23 11:50pm 6ft 11s 6s 13 16 mph 1014.5mb 49f
10:50pm 6.5ft 11s 6s 16 18 mph 1014.6mb 49f
9:50pm 7ft 9s 6s 18 22 mph 1014.1mb 49f
8:50pm 8ft 11s 6s 20 25 mph 1013.7mb 49f
7:50pm 9ft 8s 6s 22 27 mph 1013.4mb 49f
6:50pm 10ft 8s 6s 25 29 mph 1013.4mb 49f
5:50pm 11ft 8s 6s 29 38 mph 1012.8mb 49f
4:50pm 11ft 8s 6s 29 36 mph 1012.5mb 49f
3:50pm 10.5ft 8s 6s 31 38 mph 1012.6mb 49f
2:50pm 11.5ft 8s 7s 29 36 mph 1013.1mb 49f
1:50pm 10ft 9s 7s 29 36 mph 1013.1mb 49f
12:50pm 10.5ft 9s 7s 27 36 mph 1013.4mb 49f
11:50am 12ft 9s 7s 25 31 mph 1013.7mb 49f
10:50am 12ft 9s 7s 25 31 mph 1013.6mb 49f
9:50am 12ft 10s 7s 25 31 mph 1013.4mb 49f
8:50am 12ft 8s 7s 27 34 mph 1013.3mb 49f
7:50am 12ft 10s 7s 29 34 mph 1012.9mb 49f
6:50am 12.5ft 10s 7s 27 34 mph 1012.3mb 49f
5:50am 13.5ft 10s 7s 27 34 mph 1012mb 49f
4:50am 13ft 11s 7s 29 36 mph 1011.9mb 49f
3:50am 13ft 7s 7s 29 38 mph 1012mb 49f
2:50am 13ft 10s 7s 29 34 mph 1012mb 49f
1:50am 13ft 11s 7s 31 38 mph 1012mb 49f
12:50am 15ft 10s 8s 31 36 mph 1012.5mb 49f
Wed 04/22 11:50pm 14.5ft 10s 7s 29 36 mph 1012.6mb 49f
10:50pm 15ft 11s 8s 29 36 mph 1012.6mb 49f
9:50pm 15ft 8s 8s 31 40 mph 1012.7mb 49f
8:50pm 14.5ft 11s 7s 31 40 mph 1011.8mb 49f
7:50pm 17.5ft 11s 8s 34 43 mph 1011.5mb 49f
6:50pm 15.5ft 10s 8s 34 43 mph 1011.3mb 49f
5:50pm 16.5ft 11s 8s 31 40 mph 1011.5mb 49f
4:50pm 15ft 12s 8s 31 36 mph 1012.1mb 49f
3:50pm 15.5ft 11s 8s 27 34 mph 1012.7mb 49f
2:50pm 16ft 12s 8s 25 29 mph 1013mb 49f
1:50pm 16ft 11s 8s 25 29 mph 1013.2mb 49f
12:50pm 15.5ft 11s 8s 22 27 mph 1013.3mb 49f
11:50am 14.5ft 11s 8s 22 29 mph 1013.4mb 49f
10:50am 15ft 12s 9s 20 25 mph 1013.2mb 49f
9:50am 15ft 11s 8s 22 25 mph 1013mb 49f
8:50am 15.5ft 11s 8s 20 25 mph 1012.8mb 49f
7:50am 16.5ft 11s 9s 20 25 mph 1012.3mb 49f
6:50am 15.5ft 11s 9s 20 27 mph 1011.9mb 49f
5:50am 16ft 12s 9s 22 27 mph 1011.5mb 49f
4:50am 14ft 11s 8s 25 31 mph 1011.5mb 49f
3:50am 14.5ft 11s 8s 27 34 mph 1011.3mb 49f
2:50am 15ft 10s 8s 29 34 mph 1011.1mb 49f
1:50am 14ft 10s 8s 29 38 mph 1011.2mb 49f
12:50am 13ft 13s 7s 31 40 mph 1011.7mb 49f
Tue 04/21 11:50pm 13.5ft 9s 7s 31 38 mph 1012.1mb 49f
10:50pm 13ft 9s 7s 31 38 mph 1012.2mb 50f
9:50pm 13.5ft 9s 7s 34 40 mph 1012mb 50f
8:50pm 15ft 8s 7s 34 40 mph 1011.7mb 50f
7:50pm 14ft 8s 7s 34 43 mph 1011.1mb 50f
6:50pm 12.5ft 8s 7s 34 43 mph 1010.5mb 50f
5:50pm 13.5ft 8s 7s 34 40 mph 1010.2mb 50f
4:50pm 12.5ft 8s 7s 34 40 mph 1010.3mb 50f
3:50pm 11.5ft 8s 7s 31 40 mph 1010.6mb 50f
2:50pm 11ft 8s 7s 27 31 mph 1011.1mb 50f
1:50pm 9.5ft 8s 7s 27 34 mph 1011.4mb 51f
12:50pm 8ft 13s 6s 22 27 mph 1011.9mb 51f
11:50am 9ft 13s 7s 18 22 mph 1012.4mb 51f